Liberty, Nebraska
Current Conditions -  °F | °C
As of 11:55 AM on Tuesday 21 Oct 2014 (Local Time) from KMYZ Reporting Station
Clear Clear  
Wind Chill: 70°   Ceiling: Unl
Heat Index: 70°   Visibility: 10mi
Dew Point: 48°   Wind: 8mph
Humidity: 46%   Direction: 190°S
Pressure: 30.11"   Gusts: NA
Location:  40.08°N, 96.48°W
Report Text: KMYZ 211655Z AUTO 19007KT 10SM CLR 21/09 A3011 RMK AO2
Loading
Personal Weather Stations






























Interactive Weather Map
Tropical Storm Tracking
New forecast layout! Learn more

10-Day Weather Forecast

Advertisements
Track Severe Weather on mobile